EmailTwitter


Surface observations / United Kingdom / EGLL (03772)

Regions: Quebec | Canada | USA | Europe | France | UK | Elsewhere
Station
Display
Info & Location for EGLL (03772) | Help decoding METAR

Weather Conditions observed on 2018/08/15 at 23:50 UTC at LONDON/HEATHROW, UK (EGLL)

Sky conditions: overcast.

Temperature: 19.0 Celsius.

Dewpoint: 15.0 Celsius.

Relative Humidity: 78%

Humidex: 23.

Winds: Southwest at 17 km/h or 9 knots.

Mean Sea level Pressure: 101.50 kilopascals.

Horizontal visibility: 6.21 statute miles or 9.94 kilometers.

Height of the Ceiling: 884 metres ( 2900 feet ).

Coded METAR:

EGLL 152350Z AUTO 21009KT 9999 OVC029 19/15 Q1015 NOSIG=